Catawba Heights, North Carolina
Current Conditions -  °F | °C
As of 3:52 PM on Thursday 23 Oct 2014 (Local Time) from KCLT Reporting Station
Clear Clear  
Wind Chill: 68°   Ceiling: Unl
Heat Index: 68°   Visibility: 10mi
Dew Point: 37°   Wind: 0mph
Humidity: 32%   Direction: NA
Pressure: 30.01"   Gusts: NA
Location:  35.2342°N, 81.041°W
Report Text: KCLT 231952Z 00000KT 10SM CLR 20/03 A3001 RMK AO2 SLP158 T02000028
Loading
Personal Weather Stations






























Interactive Weather Map
Tropical Storm Tracking
New forecast layout! Learn more

10-Day Weather Forecast

Advertisements
Track Severe Weather on mobile